Time;durP1;ratioP1;P1;durP2;ratioP2;P2;SDS_P1;SDS_P2;PMS_P1;PMS_P2;Temp;Humidity;BMP_temperature;BMP_pressure;BME280_temperature;BME280_humidity;BME280_pressure;Samples;Min_cycle;Max_cycle;Signal;HPM_P1;HPM_P2
2021/09/06 00:00:30;;;;;;;12.98;9.38;;;15.00;99.90;;;;;;5064594;28;20549;-76
2021/09/06 00:02:57;;;;;;;12.32;9.38;;;14.90;99.90;;;;;;5078517;28;20079;-79
2021/09/06 00:05:23;;;;;;;13.57;9.60;;;14.90;99.90;;;;;;5062799;28;20036;-79
2021/09/06 00:07:51;;;;;;;13.13;9.38;;;14.90;99.90;;;;;;5031142;28;20051;-76
2021/09/06 00:10:32;;;;;;;11.90;9.45;;;14.90;99.90;;;;;;5080990;28;20035;-76
2021/09/06 00:13:01;;;;;;;13.05;9.77;;;14.90;99.90;;;;;;5083583;28;20032;-76
2021/09/06 00:15:29;;;;;;;15.90;9.45;;;14.80;99.90;;;;;;5083581;28;20024;-80
2021/09/06 00:17:55;;;;;;;11.95;9.35;;;14.90;99.90;;;;;;5060001;28;20024;-76
2021/09/06 00:20:22;;;;;;;13.52;10.40;;;14.80;99.90;;;;;;5064790;28;20502;-76
2021/09/06 00:22:49;;;;;;;11.93;9.20;;;14.80;99.90;;;;;;5083883;28;20036;-76
2021/09/06 00:25:16;;;;;;;15.30;10.77;;;14.80;99.90;;;;;;5062989;28;20056;-76
2021/09/06 00:27:42;;;;;;;15.27;9.60;;;14.80;99.90;;;;;;5080787;28;20036;-80
2021/09/06 00:30:09;;;;;;;13.77;10.63;;;14.70;99.90;;;;;;5064584;28;20036;-79
2021/09/06 00:32:36;;;;;;;14.07;11.10;;;14.70;99.90;;;;;;5086564;28;20036;-80
2021/09/06 00:35:02;;;;;;;14.25;10.35;;;14.70;99.90;;;;;;5084437;28;20506;-79
2021/09/06 00:37:29;;;;;;;13.77;10.20;;;14.70;99.90;;;;;;5068160;28;20043;-80
2021/09/06 00:39:56;;;;;;;18.17;10.77;;;14.70;99.90;;;;;;5067332;28;20039;-80
2021/09/06 00:42:23;;;;;;;15.38;10.88;;;14.70;99.90;;;;;;5051463;28;20036;-79
2021/09/06 00:44:50;;;;;;;18.83;11.50;;;14.70;99.90;;;;;;5035513;28;20047;-76
2021/09/06 00:47:16;;;;;;;14.52;10.20;;;14.60;99.90;;;;;;5067942;28;20468;-80
2021/09/06 00:49:43;;;;;;;14.48;10.35;;;14.60;99.90;;;;;;5068802;28;20047;-80
2021/09/06 00:52:09;;;;;;;12.82;9.95;;;14.60;99.90;;;;;;5086830;28;20028;-80
2021/09/06 00:54:36;;;;;;;13.75;11.15;;;14.60;99.90;;;;;;5052764;28;20039;-80
2021/09/06 00:57:02;;;;;;;15.40;11.23;;;14.50;99.90;;;;;;5051571;28;20510;-80
2021/09/06 00:59:30;;;;;;;16.17;11.25;;;14.60;99.90;;;;;;5068202;28;20376;-79
2021/09/06 01:01:59;;;;;;;15.70;11.35;;;14.50;99.90;;;;;;5084968;28;20055;-79
2021/09/06 01:04:26;;;;;;;14.60;11.80;;;14.50;99.90;;;;;;5051910;28;20525;-79
2021/09/06 01:07:11;;;;;;;15.93;10.77;;;14.50;99.90;;;;;;5086333;28;20031;-79
2021/09/06 01:10:07;;;;;;;17.38;11.40;;;14.50;99.90;;;;;;5066848;28;20039;-79
2021/09/06 01:12:57;;;;;;;17.27;10.88;;;14.50;99.90;;;;;;5078784;28;20036;-79
2021/09/06 01:15:23;;;;;;;16.83;11.63;;;14.40;99.90;;;;;;5052190;28;20032;-79
2021/09/06 01:17:50;;;;;;;16.38;11.70;;;14.40;99.90;;;;;;5063735;28;20047;-79
2021/09/06 01:20:18;;;;;;;14.88;11.57;;;14.40;99.90;;;;;;5051376;28;20040;-80
2021/09/06 01:22:50;;;;;;;15.35;11.18;;;14.40;99.90;;;;;;5053131;28;20043;-79
2021/09/06 01:25:18;;;;;;;15.55;11.77;;;14.30;99.90;;;;;;5069800;28;20040;-80
2021/09/06 01:27:47;;;;;;;14.63;11.52;;;14.30;99.90;;;;;;5050370;28;20032;-79
2021/09/06 01:30:17;;;;;;;15.02;11.15;;;14.30;99.90;;;;;;5052034;28;20040;-79
2021/09/06 01:32:44;;;;;;;14.77;11.35;;;14.30;99.90;;;;;;5066246;28;20032;-79
2021/09/06 01:35:12;;;;;;;19.95;11.45;;;14.30;99.90;;;;;;5046501;28;20040;-80
2021/09/06 01:37:44;;;;;;;18.20;12.40;;;14.30;99.90;;;;;;5045080;28;20036;-79
2021/09/06 01:40:11;;;;;;;15.95;11.45;;;14.20;99.90;;;;;;5065318;28;20035;-80
2021/09/06 01:42:37;;;;;;;15.95;11.65;;;14.20;99.90;;;;;;5051916;28;20040;-80
2021/09/06 01:45:07;;;;;;;16.52;12.05;;;14.20;99.90;;;;;;5063394;28;20028;-79
2021/09/06 01:47:33;;;;;;;15.90;11.57;;;14.20;99.90;;;;;;5049497;28;20051;-79
2021/09/06 01:50:02;;;;;;;15.93;11.55;;;14.20;99.90;;;;;;5061866;28;20499;-79
2021/09/06 01:52:37;;;;;;;15.15;11.55;;;14.20;99.90;;;;;;5047639;28;20514;-79
2021/09/06 01:55:05;;;;;;;13.98;10.77;;;14.20;99.90;;;;;;5047930;28;20045;-80
2021/09/06 01:57:35;;;;;;;14.02;10.65;;;14.10;99.90;;;;;;5047672;28;20044;-80
2021/09/06 02:00:05;;;;;;;14.13;11.15;;;14.10;99.90;;;;;;5046433;28;20403;-79
2021/09/06 02:02:40;;;;;;;17.55;11.73;;;14.10;99.90;;;;;;5060799;28;20040;-79
2021/09/06 02:05:09;;;;;;;15.18;11.50;;;14.10;99.90;;;;;;5059647;28;20045;-79
2021/09/06 02:07:38;;;;;;;17.55;12.73;;;14.10;99.90;;;;;;5030060;28;20499;-79
2021/09/06 02:10:06;;;;;;;17.60;12.38;;;14.10;99.90;;;;;;5046822;28;20411;-79
2021/09/06 02:12:33;;;;;;;16.70;11.77;;;14.10;99.90;;;;;;5066411;28;20043;-79
2021/09/06 02:15:03;;;;;;;14.77;11.85;;;14.00;99.90;;;;;;5064499;28;20029;-79
2021/09/06 02:17:29;;;;;;;17.42;12.02;;;14.00;99.90;;;;;;5062261;28;20495;-79
2021/09/06 02:19:57;;;;;;;14.50;11.45;;;14.00;99.90;;;;;;5062426;28;20032;-79
2021/09/06 02:22:23;;;;;;;16.50;11.82;;;14.00;99.90;;;;;;5063735;28;20040;-79
2021/09/06 02:25:00;;;;;;;16.52;11.75;;;13.90;99.90;;;;;;5033678;28;20057;-79
2021/09/06 02:27:31;;;;;;;18.30;12.90;;;13.90;99.90;;;;;;5044445;28;20059;-79
2021/09/06 02:30:02;;;;;;;17.88;12.40;;;13.90;99.90;;;;;;5046505;28;20048;-79
2021/09/06 02:32:30;;;;;;;19.65;12.50;;;13.90;99.90;;;;;;5063513;28;20036;-80
2021/09/06 02:35:17;;;;;;;16.40;11.80;;;13.80;99.90;;;;;;5032375;28;20052;-79
2021/09/06 02:37:44;;;;;;;19.88;12.68;;;13.80;99.90;;;;;;5044913;28;20029;-79
2021/09/06 02:40:15;;;;;;;15.82;12.35;;;13.80;99.90;;;;;;5046600;28;20491;-79
2021/09/06 02:42:43;;;;;;;16.92;11.82;;;13.80;99.90;;;;;;5029227;28;20049;-79
2021/09/06 02:45:11;;;;;;;17.15;12.15;;;13.80;99.90;;;;;;5045796;28;20036;-79
2021/09/06 02:47:45;;;;;;;18.52;12.63;;;13.80;99.90;;;;;;5062255;28;20032;-76
2021/09/06 02:50:14;;;;;;;17.50;11.45;;;13.80;99.90;;;;;;5044776;28;20053;-76
2021/09/06 02:52:41;;;;;;;18.15;12.45;;;13.70;99.90;;;;;;5062470;28;20558;-76
2021/09/06 02:55:09;;;;;;;16.10;12.32;;;13.70;99.90;;;;;;5064297;28;20039;-76
2021/09/06 02:57:40;;;;;;;16.15;11.77;;;13.70;99.90;;;;;;5046129;28;20505;-76
2021/09/06 03:00:07;;;;;;;15.88;12.05;;;13.70;99.90;;;;;;5061289;28;20040;-76
2021/09/06 03:02:34;;;;;;;18.60;12.68;;;13.70;99.90;;;;;;5048977;28;20042;-76
2021/09/06 03:05:08;;;;;;;15.93;12.27;;;13.70;99.90;;;;;;5061730;28;20728;-77
2021/09/06 03:07:38;;;;;;;13.88;11.88;;;13.60;99.90;;;;;;5050237;28;20036;-76
2021/09/06 03:10:05;;;;;;;16.80;11.35;;;13.60;99.90;;;;;;5060823;28;20414;-76
2021/09/06 03:12:34;;;;;;;16.92;11.32;;;13.70;99.90;;;;;;5051772;28;20036;-76
2021/09/06 03:15:01;;;;;;;14.55;11.70;;;13.60;99.90;;;;;;5045951;28;20041;-80
2021/09/06 03:17:29;;;;;;;15.43;11.68;;;13.60;99.90;;;;;;5061403;28;20403;-79
2021/09/06 03:19:59;;;;;;;17.58;11.82;;;13.60;99.90;;;;;;5029337;28;20498;-80
2021/09/06 03:22:26;;;;;;;14.88;11.68;;;13.60;99.90;;;;;;5062390;28;20036;-80
2021/09/06 03:24:53;;;;;;;16.45;11.30;;;13.60;99.90;;;;;;5064825;28;20036;-79
2021/09/06 03:27:20;;;;;;;14.93;11.65;;;13.50;99.90;;;;;;5043702;28;20035;-79
2021/09/06 03:29:46;;;;;;;16.45;11.65;;;13.50;99.90;;;;;;5059939;28;20486;-79
2021/09/06 03:32:13;;;;;;;15.80;12.20;;;13.50;99.90;;;;;;5060367;28;20385;-80
2021/09/06 03:34:40;;;;;;;15.90;11.40;;;13.50;99.90;;;;;;5029737;28;20052;-79
2021/09/06 03:37:08;;;;;;;17.83;12.55;;;13.50;99.90;;;;;;5043408;28;20411;-79
2021/09/06 03:39:35;;;;;;;15.32;11.52;;;13.50;99.90;;;;;;5046442;28;20047;-80
2021/09/06 03:42:03;;;;;;;18.85;12.07;;;13.40;99.90;;;;;;5047129;28;20057;-80
2021/09/06 03:44:35;;;;;;;16.15;11.85;;;13.40;99.90;;;;;;5046653;28;20037;-80
2021/09/06 03:47:02;;;;;;;18.35;12.20;;;13.40;99.90;;;;;;5061620;28;20037;-79
2021/09/06 03:49:29;;;;;;;15.63;12.00;;;13.40;99.90;;;;;;5045469;28;20060;-77
2021/09/06 03:51:56;;;;;;;15.70;11.82;;;13.30;99.90;;;;;;5045669;28;20044;-76
2021/09/06 03:54:23;;;;;;;15.77;11.68;;;13.40;99.90;;;;;;5045395;28;20029;-76
2021/09/06 03:56:50;;;;;;;16.35;13.07;;;13.30;99.90;;;;;;5061169;28;20033;-80
2021/09/06 03:59:20;;;;;;;14.82;12.70;;;13.30;99.90;;;;;;5016418;28;20408;-77
2021/09/06 04:01:50;;;;;;;17.20;11.90;;;13.30;99.90;;;;;;5060204;28;20067;-77
2021/09/06 04:04:19;;;;;;;15.10;12.07;;;13.30;99.90;;;;;;5045790;28;20035;-77
2021/09/06 04:06:48;;;;;;;18.20;12.32;;;13.30;99.90;;;;;;5043363;28;20048;-77
2021/09/06 04:09:18;;;;;;;20.33;13.35;;;13.30;99.90;;;;;;5059567;28;20052;-78
2021/09/06 04:11:45;;;;;;;16.83;12.75;;;13.30;99.90;;;;;;5064500;28;20041;-77
2021/09/06 04:14:15;;;;;;;17.02;13.02;;;13.30;99.90;;;;;;5053979;28;20031;-76
2021/09/06 04:16:44;;;;;;;19.67;12.50;;;13.20;99.90;;;;;;5061954;28;20399;-76
2021/09/06 04:19:13;;;;;;;15.85;11.77;;;13.20;99.90;;;;;;5064707;28;20046;-77
2021/09/06 04:21:40;;;;;;;18.25;11.85;;;13.20;99.90;;;;;;5065890;28;20036;-77
2021/09/06 04:24:06;;;;;;;16.55;11.77;;;13.20;99.90;;;;;;5048304;28;20040;-76
2021/09/06 04:26:36;;;;;;;16.63;11.82;;;13.20;99.90;;;;;;5032432;28;20043;-76
2021/09/06 04:29:04;;;;;;;18.75;11.07;;;13.20;99.90;;;;;;5063651;28;20039;-76
2021/09/06 04:31:31;;;;;;;14.10;10.68;;;13.20;99.90;;;;;;5066273;28;20041;-76
2021/09/06 04:33:57;;;;;;;16.67;12.93;;;13.20;99.90;;;;;;5064489;28;20040;-76
2021/09/06 04:36:27;;;;;;;16.42;11.93;;;13.20;99.90;;;;;;5064907;28;20584;-76
2021/09/06 04:38:54;;;;;;;15.68;12.77;;;13.10;99.90;;;;;;5062922;28;20380;-76
2021/09/06 04:41:21;;;;;;;16.42;12.77;;;13.10;99.90;;;;;;5066212;28;20051;-76
2021/09/06 04:43:48;;;;;;;17.40;12.38;;;13.10;99.90;;;;;;5049614;28;20403;-76
2021/09/06 04:46:15;;;;;;;17.58;11.85;;;13.10;99.90;;;;;;5046507;28;20469;-76
2021/09/06 04:48:44;;;;;;;18.73;12.43;;;13.10;99.90;;;;;;5049235;28;20039;-76
2021/09/06 04:51:12;;;;;;;18.63;13.13;;;13.00;99.90;;;;;;5063455;28;20044;-76
2021/09/06 04:53:40;;;;;;;18.88;12.77;;;13.00;99.90;;;;;;5064883;28;20028;-76
2021/09/06 04:56:08;;;;;;;18.20;12.70;;;13.00;99.90;;;;;;5066368;28;20495;-76
2021/09/06 04:58:40;;;;;;;19.73;13.50;;;13.00;99.90;;;;;;5064479;28;20039;-77
2021/09/06 05:01:07;;;;;;;16.85;12.30;;;13.00;99.90;;;;;;5049270;28;20049;-76
2021/09/06 05:03:34;;;;;;;17.92;13.18;;;13.00;99.90;;;;;;5058784;28;20408;-76
2021/09/06 05:06:05;;;;;;;20.38;14.18;;;13.00;99.90;;;;;;5065733;28;20067;-76
2021/09/06 05:08:32;;;;;;;19.02;13.95;;;12.90;99.90;;;;;;5063640;28;20045;-76
2021/09/06 05:10:58;;;;;;;19.08;13.45;;;12.90;99.90;;;;;;5045738;28;20522;-77
2021/09/06 05:13:25;;;;;;;19.85;13.60;;;13.00;99.90;;;;;;5066793;28;20025;-76
2021/09/06 05:15:53;;;;;;;19.58;14.27;;;12.90;99.90;;;;;;5064370;28;20033;-76
2021/09/06 05:18:20;;;;;;;17.27;12.90;;;13.00;99.90;;;;;;5061832;28;20510;-76
2021/09/06 05:20:47;;;;;;;19.15;13.60;;;12.90;99.90;;;;;;5063572;28;20043;-76
2021/09/06 05:23:13;;;;;;;18.45;14.05;;;12.90;99.90;;;;;;5065033;28;20031;-76
2021/09/06 05:25:40;;;;;;;20.17;14.70;;;12.90;99.90;;;;;;5062785;28;20040;-76
2021/09/06 05:28:07;;;;;;;17.85;13.05;;;12.90;99.90;;;;;;5061774;28;20036;-76
2021/09/06 05:30:34;;;;;;;16.60;12.18;;;12.90;99.90;;;;;;5063133;28;20036;-76
2021/09/06 05:33:01;;;;;;;17.90;12.60;;;12.90;99.90;;;;;;5028744;28;20476;-76
2021/09/06 05:35:28;;;;;;;21.52;13.77;;;12.90;99.90;;;;;;5064211;28;20048;-76
2021/09/06 05:37:55;;;;;;;19.73;14.55;;;13.00;99.90;;;;;;5043522;28;20183;-76
2021/09/06 05:40:39;;;;;;;17.17;12.88;;;13.00;99.90;;;;;;5062320;28;20040;-76
2021/09/06 05:43:05;;;;;;;18.02;13.60;;;13.00;99.90;;;;;;5064637;28;20033;-76
2021/09/06 05:45:32;;;;;;;20.58;14.00;;;13.00;99.90;;;;;;5063807;28;20028;-76
2021/09/06 05:47:59;;;;;;;19.02;14.50;;;13.10;99.90;;;;;;5060513;28;20033;-76
2021/09/06 05:50:26;;;;;;;19.30;13.77;;;13.20;99.90;;;;;;5046322;28;20041;-76
2021/09/06 05:53:14;;;;;;;19.95;14.00;;;13.20;99.90;;;;;;5064744;28;20033;-76
2021/09/06 05:55:43;;;;;;;20.33;14.95;;;13.20;99.90;;;;;;5046742;28;20039;-76
2021/09/06 05:58:12;;;;;;;18.98;13.02;;;13.30;99.90;;;;;;5061968;28;20492;-76
2021/09/06 06:00:39;;;;;;;17.58;12.32;;;13.40;99.90;;;;;;5063878;28;20510;-76
2021/09/06 06:03:06;;;;;;;20.75;13.02;;;13.50;99.90;;;;;;5060984;28;20040;-76
2021/09/06 06:05:33;;;;;;;20.63;13.73;;;13.60;99.90;;;;;;5064659;28;20036;-76
2021/09/06 06:08:00;;;;;;;17.45;13.00;;;13.80;99.90;;;;;;5046737;28;20029;-79
2021/09/06 06:10:27;;;;;;;19.40;13.77;;;13.90;99.90;;;;;;5062760;28;20048;-79
2021/09/06 06:12:55;;;;;;;20.83;14.15;;;14.10;99.90;;;;;;5043639;28;20896;-79
2021/09/06 06:15:21;;;;;;;19.20;13.68;;;14.30;99.90;;;;;;5029948;28;20040;-79
2021/09/06 06:17:48;;;;;;;20.13;14.50;;;14.50;99.90;;;;;;5044036;28;20041;-79
2021/09/06 06:20:18;;;;;;;21.05;14.43;;;14.70;99.90;;;;;;5011807;28;20041;-80
2021/09/06 06:23:05;;;;;;;20.90;14.73;;;14.90;99.90;;;;;;5050024;28;20036;-79
2021/09/06 06:25:46;;;;;;;20.83;13.93;;;15.10;99.90;;;;;;5061652;28;20463;-76
2021/09/06 06:28:16;;;;;;;22.52;15.35;;;15.40;99.90;;;;;;5045652;28;20032;-76
2021/09/06 06:30:44;;;;;;;22.83;14.93;;;15.60;99.90;;;;;;5065711;28;20641;-84
2021/09/06 06:33:10;;;;;;;22.30;16.25;;;15.70;99.90;;;;;;5011622;28;20411;-79
2021/09/06 06:35:43;;;;;;;20.52;15.43;;;15.90;99.90;;;;;;5032952;28;20058;-79
2021/09/06 06:38:10;;;;;;;23.50;15.40;;;16.00;99.90;;;;;;5026638;28;20051;-76
2021/09/06 06:40:42;;;;;;;23.15;16.02;;;16.10;99.90;;;;;;5057291;28;20019;-76
2021/09/06 06:43:09;;;;;;;21.15;15.90;;;16.30;99.90;;;;;;5057918;28;20040;-76
2021/09/06 06:45:36;;;;;;;24.20;18.73;;;16.50;99.90;;;;;;5059464;28;20127;-77
2021/09/06 06:48:04;;;;;;;21.88;15.93;;;16.60;99.90;;;;;;5054089;28;20060;-76
2021/09/06 06:50:30;;;;;;;21.83;15.80;;;16.80;99.90;;;;;;5041035;28;20041;-76
2021/09/06 06:52:57;;;;;;;19.52;15.73;;;16.90;99.90;;;;;;5057191;28;20037;-76
2021/09/06 06:55:25;;;;;;;21.77;16.00;;;17.10;99.90;;;;;;5041219;28;20064;-76
2021/09/06 06:57:53;;;;;;;30.38;21.83;;;17.20;99.90;;;;;;5040764;28;20041;-75
2021/09/06 07:00:21;;;;;;;24.33;18.73;;;17.30;99.90;;;;;;5056500;28;20047;-77
2021/09/06 07:02:48;;;;;;;20.40;14.73;;;17.40;99.90;;;;;;5045002;28;20041;-76
2021/09/06 07:05:15;;;;;;;22.80;16.38;;;17.50;99.90;;;;;;5060430;28;20044;-80
2021/09/06 07:07:47;;;;;;;23.60;17.05;;;17.60;99.90;;;;;;5048173;28;20036;-80
2021/09/06 07:10:13;;;;;;;18.65;14.38;;;17.70;99.90;;;;;;5064305;28;20063;-80
2021/09/06 07:12:40;;;;;;;16.60;13.82;;;17.80;99.90;;;;;;5064287;28;20040;-81
2021/09/06 07:15:09;;;;;;;23.27;16.45;;;17.90;99.90;;;;;;5029468;28;20579;-80
2021/09/06 07:17:36;;;;;;;18.02;13.77;;;18.00;99.90;;;;;;5063965;28;20032;-80
2021/09/06 07:20:03;;;;;;;24.60;18.02;;;18.20;99.90;;;;;;5045577;28;20044;-81
2021/09/06 07:22:29;;;;;;;22.50;15.45;;;18.30;99.90;;;;;;5058462;28;20048;-80
2021/09/06 07:24:56;;;;;;;20.50;14.68;;;18.40;99.90;;;;;;5060774;28;20056;-83
2021/09/06 07:27:23;;;;;;;17.58;13.82;;;18.50;99.90;;;;;;5058100;28;20044;-80
2021/09/06 07:29:52;;;;;;;17.38;14.50;;;18.60;99.90;;;;;;5045834;28;20036;-80
2021/09/06 07:32:18;;;;;;;20.98;15.40;;;18.80;99.90;;;;;;5046433;28;20032;-80
2021/09/06 07:34:45;;;;;;;16.20;12.23;;;18.90;99.90;;;;;;5063189;28;20037;-76
2021/09/06 07:37:14;;;;;;;18.27;13.57;;;19.00;99.90;;;;;;5060306;28;20045;-76
2021/09/06 07:39:46;;;;;;;18.67;13.00;;;19.20;99.90;;;;;;5061815;28;20867;-76
2021/09/06 07:42:13;;;;;;;17.90;13.43;;;19.30;99.90;;;;;;5056538;28;20107;-77
2021/09/06 07:44:41;;;;;;;19.10;15.00;;;19.40;99.90;;;;;;5045880;28;20851;-76
2021/09/06 07:47:10;;;;;;;19.88;14.38;;;19.50;99.90;;;;;;5043937;28;20036;-76
2021/09/06 07:49:37;;;;;;;18.02;12.68;;;19.60;99.90;;;;;;5042028;28;20049;-84
2021/09/06 07:52:11;;;;;;;18.38;13.98;;;19.80;99.90;;;;;;5041621;28;20404;-76
2021/09/06 07:54:37;;;;;;;14.73;12.32;;;19.90;99.90;;;;;;5039234;28;20041;-82
2021/09/06 07:57:04;;;;;;;17.45;12.90;;;20.00;99.90;;;;;;5042801;28;20044;-81
2021/09/06 07:59:32;;;;;;;14.85;11.05;;;20.10;99.90;;;;;;5039339;28;20536;-82
2021/09/06 08:01:58;;;;;;;18.05;12.70;;;20.30;99.90;;;;;;5040722;28;20029;-82
2021/09/06 08:04:26;;;;;;;14.88;10.90;;;20.50;99.90;;;;;;5010554;28;20041;-77
2021/09/06 08:06:55;;;;;;;18.40;12.82;;;20.60;99.90;;;;;;5039607;28;20104;-78
2021/09/06 08:09:22;;;;;;;12.52;9.90;;;20.70;99.90;;;;;;5040905;28;20043;-85
2021/09/06 08:11:48;;;;;;;18.65;11.10;;;20.80;99.90;;;;;;5042496;28;20053;-83
2021/09/06 08:14:20;;;;;;;13.05;10.60;;;20.80;99.90;;;;;;5024321;28;20496;-83
2021/09/06 08:16:47;;;;;;;16.75;12.68;;;21.00;99.90;;;;;;5042204;28;20033;-83
2021/09/06 08:19:14;;;;;;;11.80;9.60;;;21.10;99.60;;;;;;5039891;28;20037;-83
2021/09/06 08:21:43;;;;;;;14.27;10.93;;;21.20;99.40;;;;;;5043591;28;20040;-83
2021/09/06 08:24:11;;;;;;;16.85;12.40;;;21.20;99.20;;;;;;5025371;28;20461;-82
2021/09/06 08:26:41;;;;;;;13.90;10.80;;;21.30;99.10;;;;;;5035031;28;20029;-78
2021/09/06 08:29:09;;;;;;;13.27;10.05;;;21.30;99.00;;;;;;5007905;28;20052;-78
2021/09/06 08:31:37;;;;;;;20.55;15.05;;;21.40;99.00;;;;;;5028260;28;20404;-78
2021/09/06 08:34:03;;;;;;;13.05;10.48;;;21.50;98.50;;;;;;5041483;28;20037;-78
2021/09/06 08:36:32;;;;;;;12.85;9.73;;;21.50;98.40;;;;;;5040950;28;20041;-78
2021/09/06 08:38:58;;;;;;;14.10;10.15;;;21.50;98.40;;;;;;5038279;28;20393;-78
2021/09/06 08:41:25;;;;;;;16.08;11.00;;;21.60;98.30;;;;;;5040454;28;20045;-83
2021/09/06 08:43:51;;;;;;;15.02;12.30;;;21.70;98.30;;;;;;5009866;28;20037;-83
2021/09/06 08:46:24;;;;;;;13.95;11.82;;;21.70;98.10;;;;;;5038714;28;20037;-84
2021/09/06 08:48:54;;;;;;;16.08;12.52;;;21.80;97.90;;;;;;5040366;28;20040;-83
2021/09/06 08:51:23;;;;;;;13.15;11.02;;;21.80;97.70;;;;;;5043639;28;20041;-78
2021/09/06 08:53:50;;;;;;;13.75;10.80;;;21.90;97.60;;;;;;5055687;28;20033;-78
2021/09/06 08:56:17;;;;;;;15.10;11.50;;;21.90;97.50;;;;;;5060834;28;20032;-77
2021/09/06 08:58:45;;;;;;;13.93;10.52;;;22.00;97.30;;;;;;5046661;28;20056;-78
2021/09/06 09:01:12;;;;;;;15.45;11.70;;;22.10;97.20;;;;;;5061691;28;20037;-77
2021/09/06 09:03:53;;;;;;;14.48;10.73;;;22.20;97.10;;;;;;5033656;28;20049;-78
2021/09/06 09:06:47;;;;;;;16.33;13.32;;;22.30;97.10;;;;;;5045342;28;20044;-78
2021/09/06 09:09:40;;;;;;;15.55;12.05;;;22.60;97.00;;;;;;5058203;28;20047;-77
2021/09/06 09:12:25;;;;;;;16.50;11.60;;;22.80;96.80;;;;;;5051310;28;20063;-77
2021/09/06 09:15:15;;;;;;;12.68;11.07;;;22.90;96.60;;;;;;5059615;28;20044;-77
2021/09/06 09:18:00;;;;;;;12.88;11.05;;;23.00;96.40;;;;;;5060242;28;20047;-77
2021/09/06 09:20:55;;;;;;;17.42;12.35;;;23.10;96.20;;;;;;5060677;28;20040;-77
2021/09/06 09:23:50;;;;;;;13.35;11.52;;;23.20;95.50;;;;;;5061416;28;20059;-77
2021/09/06 09:26:36;;;;;;;14.65;11.45;;;23.20;95.40;;;;;;5064851;28;20502;-78
2021/09/06 09:29:20;;;;;;;12.00;9.15;;;23.20;95.30;;;;;;5063658;28;20541;-77
2021/09/06 09:32:11;;;;;;;13.05;10.75;;;23.30;95.20;;;;;;5082548;28;20040;-77
2021/09/06 09:34:51;;;;;;;14.27;11.60;;;23.30;94.90;;;;;;5063030;28;20033;-77
2021/09/06 09:37:35;;;;;;;11.98;10.45;;;23.40;94.80;;;;;;5062965;28;20043;-77
2021/09/06 09:40:10;;;;;;;14.05;11.38;;;23.60;94.60;;;;;;5063039;28;20036;-77
2021/09/06 09:42:50;;;;;;;12.80;10.55;;;23.70;94.40;;;;;;5063649;28;20047;-77
2021/09/06 09:45:25;;;;;;;12.32;9.68;;;23.80;94.40;;;;;;5042833;28;20502;-77
2021/09/06 09:48:11;;;;;;;10.98;9.32;;;23.90;94.30;;;;;;5059328;28;20032;-77
2021/09/06 09:50:38;;;;;;;9.73;8.18;;;24.00;93.80;;;;;;5064172;28;20061;-77
2021/09/06 09:53:06;;;;;;;8.93;6.75;;;24.00;93.30;;;;;;5064180;28;20041;-78
2021/09/06 09:55:34;;;;;;;9.00;7.68;;;24.10;92.70;;;;;;5064345;28;20047;-77
2021/09/06 09:58:02;;;;;;;7.65;6.32;;;24.10;91.80;;;;;;5061274;28;20052;-78
2021/09/06 10:00:30;;;;;;;8.50;6.38;;;24.10;91.50;;;;;;5062162;28;20388;-77
2021/09/06 10:02:59;;;;;;;6.90;5.90;;;24.20;90.90;;;;;;5062161;28;20036;-77
2021/09/06 10:05:31;;;;;;;9.05;6.57;;;24.20;90.60;;;;;;5061700;28;20055;-77
2021/09/06 10:08:03;;;;;;;13.57;9.13;;;24.30;89.80;;;;;;5063621;28;20419;-77
2021/09/06 10:10:40;;;;;;;9.60;7.55;;;24.30;88.30;;;;;;5065755;28;20035;-77
2021/09/06 10:13:14;;;;;;;8.70;7.55;;;24.20;86.40;;;;;;5044636;28;20048;-77
2021/09/06 10:15:44;;;;;;;8.70;6.93;;;24.20;86.20;;;;;;5064620;28;20032;-77
2021/09/06 10:18:18;;;;;;;10.57;7.32;;;24.30;86.60;;;;;;5062051;28;20791;-77
2021/09/06 10:20:48;;;;;;;9.10;6.90;;;24.40;86.50;;;;;;5061595;28;20036;-77
2021/09/06 10:23:15;;;;;;;10.70;7.57;;;24.70;86.50;;;;;;5065559;28;20029;-77
2021/09/06 10:25:44;;;;;;;7.90;7.10;;;25.00;85.90;;;;;;5044868;28;20044;-77
2021/09/06 10:28:13;;;;;;;10.52;6.78;;;25.30;85.10;;;;;;5060448;28;20024;-77
2021/09/06 10:30:53;;;;;;;7.85;6.03;;;25.50;84.60;;;;;;5063053;28;20033;-75
2021/09/06 10:33:36;;;;;;;7.15;6.45;;;25.80;83.50;;;;;;5062442;28;20040;-77
2021/09/06 10:36:11;;;;;;;8.00;5.55;;;26.10;81.70;;;;;;5044848;28;20047;-77
2021/09/06 10:38:41;;;;;;;6.65;5.65;;;26.50;80.60;;;;;;5060624;28;20028;-77
2021/09/06 10:41:22;;;;;;;6.73;5.87;;;26.90;79.00;;;;;;5044654;28;20043;-78
2021/09/06 10:43:50;;;;;;;8.00;5.75;;;27.20;77.10;;;;;;5062743;28;20028;-77
2021/09/06 10:46:21;;;;;;;9.18;6.22;;;27.50;75.40;;;;;;5028441;28;20420;-80
2021/09/06 10:48:50;;;;;;;5.72;5.13;;;27.70;74.00;;;;;;5058939;28;20395;-77
2021/09/06 10:51:29;;;;;;;7.70;6.05;;;27.80;72.90;;;;;;5080680;28;20051;-77
2021/09/06 10:53:58;;;;;;;8.77;6.85;;;27.90;73.00;;;;;;5065760;28;20032;-77
2021/09/06 10:56:28;;;;;;;10.00;6.85;;;28.20;72.80;;;;;;5044593;28;20157;-77
2021/09/06 10:58:55;;;;;;;8.40;6.65;;;28.40;72.00;;;;;;5047028;28;20047;-77
2021/09/06 11:01:22;;;;;;;7.60;5.78;;;28.70;69.60;;;;;;5065217;28;20039;-78
2021/09/06 11:03:52;;;;;;;7.10;6.05;;;28.80;68.90;;;;;;5082404;28;20032;-78
2021/09/06 11:06:20;;;;;;;6.45;5.55;;;29.00;69.20;;;;;;5032155;28;20044;-77
2021/09/06 11:08:46;;;;;;;6.15;5.55;;;29.10;66.80;;;;;;5080673;28;20032;-77
2021/09/06 11:11:13;;;;;;;7.90;5.65;;;29.30;66.20;;;;;;5031342;28;20048;-77
2021/09/06 11:13:48;;;;;;;6.72;5.35;;;29.60;65.50;;;;;;5048802;28;20475;-80
2021/09/06 11:16:17;;;;;;;7.43;5.03;;;29.90;63.90;;;;;;5066652;28;20498;-83
2021/09/06 11:18:47;;;;;;;6.32;5.13;;;30.20;61.90;;;;;;5063742;28;20043;-77
2021/09/06 11:21:14;;;;;;;5.13;4.72;;;30.20;60.10;;;;;;5068361;28;20044;-85
2021/09/06 11:23:44;;;;;;;6.30;5.65;;;30.10;58.80;;;;;;5067079;28;20043;-84
2021/09/06 11:26:27;;;;;;;7.50;5.38;;;30.00;57.50;;;;;;5075563;28;20389;-84
2021/09/06 11:28:55;;;;;;;5.68;5.07;;;29.80;56.60;;;;;;5065523;28;20078;-84
2021/09/06 11:31:26;;;;;;;6.80;5.38;;;30.00;57.70;;;;;;5049322;28;20044;-84
2021/09/06 11:34:13;;;;;;;6.60;5.15;;;30.30;57.40;;;;;;5062359;28;20040;-84
2021/09/06 11:36:40;;;;;;;5.82;5.03;;;30.80;56.20;;;;;;5080076;28;20055;-88
2021/09/06 11:39:08;;;;;;;5.68;5.15;;;31.10;54.90;;;;;;5062172;28;20494;-86
2021/09/06 11:41:39;;;;;;;5.88;4.85;;;31.00;53.40;;;;;;5078560;28;20051;-85
2021/09/06 11:44:07;;;;;;;5.93;5.30;;;31.10;53.00;;;;;;5048529;28;20043;-85
2021/09/06 11:46:34;;;;;;;6.40;5.60;;;31.30;53.60;;;;;;5046197;28;20047;-85
2021/09/06 11:49:01;;;;;;;8.23;5.40;;;31.80;52.70;;;;;;5063573;28;20044;-84
2021/09/06 11:51:28;;;;;;;6.10;5.50;;;32.20;51.50;;;;;;5060212;28;20423;-85
2021/09/06 11:53:57;;;;;;;6.15;5.55;;;32.60;51.20;;;;;;5079163;28;20028;-84
2021/09/06 11:56:24;;;;;;;5.88;5.38;;;32.80;49.70;;;;;;5027278;28;20487;-85
2021/09/06 11:58:51;;;;;;;6.93;6.22;;;32.90;50.50;;;;;;5083810;28;20036;-85
2021/09/06 12:01:17;;;;;;;7.30;6.50;;;33.20;52.20;;;;;;5058245;28;20036;-85
2021/09/06 12:03:46;;;;;;;7.57;5.88;;;33.40;52.50;;;;;;5062293;28;20048;-86
2021/09/06 12:06:15;;;;;;;6.65;5.95;;;33.60;51.10;;;;;;5078425;28;20487;-86
2021/09/06 12:08:58;;;;;;;7.57;5.88;;;33.90;50.20;;;;;;5030932;28;20040;-86
2021/09/06 12:11:37;;;;;;;6.30;5.47;;;34.00;50.10;;;;;;5061299;28;20371;-86
2021/09/06 12:14:06;;;;;;;8.63;6.85;;;34.10;49.60;;;;;;5047044;28;20027;-86
2021/09/06 12:16:34;;;;;;;7.32;6.05;;;34.40;48.80;;;;;;5062706;28;20416;-86
2021/09/06 12:19:01;;;;;;;6.95;6.35;;;34.60;47.60;;;;;;5063919;28;20032;-85
2021/09/06 12:21:29;;;;;;;9.02;6.20;;;34.90;47.20;;;;;;5062179;28;20120;-86
2021/09/06 12:24:02;;;;;;;6.78;6.07;;;35.10;46.50;;;;;;5066592;28;20376;-86
2021/09/06 12:26:44;;;;;;;6.82;6.22;;;35.40;46.40;;;;;;5042871;28;20134;-87
2021/09/06 12:29:11;;;;;;;7.32;6.63;;;35.60;45.70;;;;;;5055781;28;20048;-86
2021/09/06 12:31:43;;;;;;;8.00;6.40;;;35.70;44.90;;;;;;5077506;28;20039;-86
2021/09/06 12:34:12;;;;;;;7.05;6.45;;;36.00;43.90;;;;;;5037163;28;20059;-87
2021/09/06 12:36:40;;;;;;;7.07;6.45;;;36.30;41.40;;;;;;5079925;28;20032;-78
2021/09/06 12:39:07;;;;;;;7.65;7.05;;;36.10;41.10;;;;;;5082354;28;20028;-78
2021/09/06 12:41:33;;;;;;;7.45;6.75;;;35.80;40.90;;;;;;5046832;28;20055;-78
2021/09/06 12:44:00;;;;;;;8.77;7.97;;;35.40;41.00;;;;;;5063038;28;20039;-78